createdAt,value
2022-10-05T00:01:29.985Z,2.87
2022-10-05T00:04:10.747Z,3.63
2022-10-05T00:06:38.919Z,2.90
2022-10-05T00:09:17.529Z,3.33
2022-10-05T00:11:46.423Z,2.80
2022-10-05T00:14:19.364Z,3.30
2022-10-05T00:16:48.411Z,3.00
2022-10-05T00:19:27.774Z,2.77
2022-10-05T00:22:00.287Z,3.00
2022-10-05T00:24:31.030Z,2.47
2022-10-05T00:27:02.189Z,2.93
2022-10-05T00:29:30.235Z,3.03
2022-10-05T00:31:58.266Z,2.77
2022-10-05T00:34:26.717Z,3.27
2022-10-05T00:36:54.757Z,2.77
2022-10-05T00:39:22.809Z,3.10
2022-10-05T00:42:11.960Z,2.97
2022-10-05T00:44:46.548Z,3.00
2022-10-05T00:47:41.882Z,2.90
2022-10-05T00:50:57.621Z,3.00
2022-10-05T00:53:43.438Z,2.70
2022-10-05T00:56:32.069Z,2.97
2022-10-05T00:59:17.395Z,3.03
2022-10-05T01:01:58.140Z,2.73
2022-10-05T01:04:37.024Z,3.10
2022-10-05T01:07:16.917Z,2.80
2022-10-05T01:09:57.628Z,3.07
2022-10-05T01:12:39.081Z,2.70
2022-10-05T01:15:17.165Z,2.80
2022-10-05T01:17:53.796Z,2.60
2022-10-05T01:20:36.962Z,3.07
2022-10-05T01:23:59.679Z,3.00
2022-10-05T01:26:53.075Z,3.37
2022-10-05T01:29:28.481Z,2.77
2022-10-05T01:32:05.480Z,3.00
2022-10-05T01:34:43.208Z,2.90
2022-10-05T01:37:24.517Z,3.03
2022-10-05T01:40:03.581Z,2.50
2022-10-05T01:42:52.510Z,2.63
2022-10-05T01:45:33.443Z,3.07
2022-10-05T01:48:10.603Z,3.20
2022-10-05T01:50:52.331Z,3.10
2022-10-05T01:53:37.323Z,2.80
2022-10-05T01:56:19.558Z,2.67
2022-10-05T01:59:02.498Z,2.90
2022-10-05T02:01:44.481Z,2.83
2022-10-05T02:04:42.785Z,2.83
2022-10-05T02:07:17.702Z,3.10
2022-10-05T02:09:54.273Z,3.10
2022-10-05T02:12:28.312Z,3.10
2022-10-05T02:15:04.563Z,3.10
2022-10-05T02:17:41.261Z,2.97
2022-10-05T02:20:15.962Z,3.23
2022-10-05T02:22:49.029Z,3.30
2022-10-05T02:25:21.406Z,2.83
2022-10-05T02:27:54.476Z,3.10
2022-10-05T02:30:23.029Z,3.27
2022-10-05T02:32:59.491Z,2.80
2022-10-05T02:35:27.916Z,2.90
2022-10-05T02:38:11.707Z,3.17
2022-10-05T02:40:54.855Z,3.20
2022-10-05T02:43:40.357Z,3.13
2022-10-05T02:46:25.084Z,2.90
2022-10-05T02:49:12.038Z,2.70
2022-10-05T02:51:50.126Z,2.93
2022-10-05T02:54:40.365Z,2.77
2022-10-05T02:57:20.453Z,3.00
2022-10-05T02:59:59.075Z,2.90
2022-10-05T03:02:34.846Z,3.07
2022-10-05T03:05:13.856Z,3.03
2022-10-05T03:07:56.479Z,3.10
2022-10-05T03:10:36.006Z,2.93
2022-10-05T03:13:13.906Z,3.00
2022-10-05T03:16:16.580Z,3.03
2022-10-05T03:19:02.572Z,3.33
2022-10-05T03:21:57.506Z,2.80
2022-10-05T03:25:14.077Z,3.60
2022-10-05T03:28:02.387Z,3.43
2022-10-05T03:30:42.892Z,3.80
2022-10-05T03:33:23.246Z,3.47
2022-10-05T03:36:03.514Z,3.43
2022-10-05T03:38:44.979Z,3.10
2022-10-05T03:41:21.306Z,3.63
2022-10-05T03:44:12.461Z,3.73
2022-10-05T03:46:59.723Z,3.60
2022-10-05T03:49:48.922Z,3.40
2022-10-05T03:52:22.055Z,3.57
2022-10-05T03:54:58.919Z,4.00
2022-10-05T03:57:32.473Z,4.00
2022-10-05T04:00:06.919Z,3.50
2022-10-05T04:02:42.690Z,3.60
2022-10-05T04:05:18.853Z,3.80
2022-10-05T04:07:56.622Z,4.10
2022-10-05T04:10:32.254Z,3.87
2022-10-05T04:13:05.774Z,3.50
2022-10-05T04:15:41.538Z,3.70
2022-10-05T04:18:23.353Z,4.83
2022-10-05T04:20:57.624Z,3.90
2022-10-05T04:23:39.451Z,6.57
2022-10-05T04:26:15.347Z,5.50
2022-10-05T04:28:53.696Z,4.07
2022-10-05T04:31:45.150Z,3.63
2022-10-05T04:34:45.468Z,3.50
2022-10-05T04:37:24.681Z,4.03
2022-10-05T04:40:09.511Z,4.00
2022-10-05T04:42:49.411Z,3.47
2022-10-05T04:45:38.143Z,3.90
2022-10-05T04:48:53.832Z,3.90
2022-10-05T04:51:38.108Z,3.80
2022-10-05T04:54:21.152Z,4.10
2022-10-05T04:56:55.974Z,4.07
2022-10-05T05:00:04.697Z,4.23
2022-10-05T05:03:16.184Z,4.13
2022-10-05T05:06:16.411Z,4.20
2022-10-05T05:09:14.649Z,4.13
2022-10-05T05:12:02.126Z,4.07
2022-10-05T05:14:58.102Z,3.70
2022-10-05T05:17:49.632Z,3.93
2022-10-05T05:20:28.945Z,4.00
2022-10-05T05:23:11.561Z,4.00
2022-10-05T05:25:53.130Z,4.17
2022-10-05T05:28:35.795Z,4.13
2022-10-05T05:31:19.966Z,4.10
2022-10-05T05:34:04.914Z,4.17
2022-10-05T05:36:54.278Z,4.13
2022-10-05T05:39:29.491Z,4.30
2022-10-05T05:42:17.066Z,4.03
2022-10-05T05:44:51.885Z,4.40
2022-10-05T05:47:35.109Z,3.70
2022-10-05T05:50:30.333Z,4.37
2022-10-05T05:53:07.418Z,4.53
2022-10-05T05:55:42.441Z,4.43
2022-10-05T05:58:21.739Z,3.83
2022-10-05T06:00:58.362Z,4.30
2022-10-05T06:03:38.524Z,3.70
2022-10-05T06:06:12.277Z,3.67
2022-10-05T06:08:46.426Z,3.50
2022-10-05T06:11:22.746Z,4.63
2022-10-05T06:13:52.118Z,4.30
2022-10-05T06:16:27.968Z,3.83
2022-10-05T06:19:03.925Z,4.47
2022-10-05T06:21:41.486Z,4.07
2022-10-05T06:24:20.142Z,3.77
2022-10-05T06:27:25.851Z,4.20
2022-10-05T06:30:13.015Z,4.00
2022-10-05T06:33:02.720Z,4.10
2022-10-05T06:35:53.204Z,3.47
2022-10-05T06:38:48.706Z,3.50
2022-10-05T06:41:31.440Z,3.70
2022-10-05T06:44:04.135Z,3.53
2022-10-05T06:46:36.990Z,3.63
2022-10-05T06:49:21.317Z,3.90
2022-10-05T06:52:00.683Z,4.00
2022-10-05T06:54:47.194Z,3.80
2022-10-05T06:57:36.529Z,3.60
2022-10-05T07:00:16.032Z,3.77
2022-10-05T07:02:54.847Z,4.63
2022-10-05T07:05:53.902Z,4.20
2022-10-05T07:08:39.209Z,4.10
2022-10-05T07:11:26.287Z,3.73
2022-10-05T07:14:26.244Z,4.13
2022-10-05T07:17:13.895Z,3.70
2022-10-05T07:19:52.510Z,3.93
2022-10-05T07:22:49.375Z,3.67
2022-10-05T07:25:24.889Z,3.65
2022-10-05T07:28:01.803Z,3.72
2022-10-05T07:30:36.123Z,4.10
2022-10-05T07:33:15.574Z,3.60
2022-10-05T07:36:14.078Z,3.83
2022-10-05T07:38:53.738Z,4.05
2022-10-05T07:41:37.090Z,4.38
2022-10-05T07:44:16.102Z,4.28
2022-10-05T07:46:53.249Z,4.20
2022-10-05T07:49:35.539Z,3.97
2022-10-05T07:52:11.884Z,4.05
2022-10-05T07:54:57.081Z,4.45
2022-10-05T07:57:39.336Z,4.05
2022-10-05T08:00:15.025Z,4.10
2022-10-05T08:02:51.578Z,4.03
2022-10-05T08:05:27.426Z,4.05
2022-10-05T08:08:05.355Z,4.28
2022-10-05T08:10:45.475Z,4.40
2022-10-05T08:13:24.033Z,4.15
2022-10-05T08:15:58.976Z,3.75
2022-10-05T08:18:47.143Z,4.28
2022-10-05T08:21:20.629Z,4.13
2022-10-05T08:23:58.030Z,3.38
2022-10-05T08:26:38.026Z,4.40
2022-10-05T08:29:17.905Z,4.53
2022-10-05T08:31:53.177Z,4.30
2022-10-05T08:34:30.921Z,3.97
2022-10-05T08:37:06.967Z,4.25
2022-10-05T08:39:41.175Z,4.25
2022-10-05T08:43:06.656Z,5.03
2022-10-05T08:46:19.350Z,4.28
2022-10-05T08:49:40.410Z,4.15
2022-10-05T08:52:30.740Z,4.13
2022-10-05T08:55:38.631Z,3.67
2022-10-05T08:58:34.949Z,4.10
2022-10-05T09:01:15.617Z,3.60
2022-10-05T09:04:30.470Z,4.18
2022-10-05T09:07:57.718Z,4.10
2022-10-05T09:10:59.284Z,4.35
2022-10-05T09:14:02.967Z,4.38
2022-10-05T09:16:57.957Z,3.90
2022-10-05T09:20:07.948Z,4.15
2022-10-05T09:22:44.922Z,4.38
2022-10-05T09:25:24.397Z,4.07
2022-10-05T09:27:58.025Z,4.35
2022-10-05T09:30:41.378Z,4.13
2022-10-05T09:33:59.727Z,4.50
2022-10-05T09:37:29.114Z,3.92
2022-10-05T09:40:47.457Z,3.60
2022-10-05T09:44:12.803Z,3.88
2022-10-05T09:47:33.122Z,4.20
2022-10-05T09:50:33.441Z,3.83
2022-10-05T09:53:27.185Z,4.30
2022-10-05T09:56:21.994Z,4.10
2022-10-05T09:59:40.796Z,3.72
2022-10-05T10:02:40.709Z,4.65
2022-10-05T10:05:39.330Z,4.07
2022-10-05T10:08:39.342Z,3.95
2022-10-05T10:11:33.827Z,4.20
2022-10-05T10:15:03.291Z,4.03
2022-10-05T10:18:02.530Z,4.38
2022-10-05T10:21:03.791Z,4.07
2022-10-05T10:24:03.678Z,4.13
2022-10-05T10:27:17.336Z,4.20
2022-10-05T10:30:09.437Z,4.10
2022-10-05T10:33:39.639Z,4.13
2022-10-05T10:36:18.811Z,4.45
2022-10-05T10:39:02.622Z,3.95
2022-10-05T10:42:22.559Z,4.15
2022-10-05T10:45:23.970Z,4.00
2022-10-05T10:48:04.982Z,3.80
2022-10-05T10:51:18.303Z,3.88
2022-10-05T10:54:23.670Z,4.22
2022-10-05T10:57:06.165Z,3.63
2022-10-05T11:00:35.138Z,4.03
2022-10-05T11:03:58.390Z,3.72
2022-10-05T11:07:07.065Z,4.30
2022-10-05T11:10:09.730Z,3.65
2022-10-05T11:13:24.638Z,3.35
2022-10-05T11:16:28.097Z,3.50
2022-10-05T11:20:02.404Z,3.67
2022-10-05T11:23:04.205Z,3.38
2022-10-05T11:26:14.529Z,3.50
2022-10-05T11:29:17.253Z,3.38
2022-10-05T11:32:27.390Z,3.80
2022-10-05T11:35:37.288Z,3.38
2022-10-05T11:38:50.030Z,3.63
2022-10-05T11:41:49.132Z,3.55
2022-10-05T11:45:15.321Z,3.83
2022-10-05T11:48:11.442Z,3.03
2022-10-05T11:50:51.336Z,3.42
2022-10-05T11:53:28.009Z,3.53
2022-10-05T11:56:09.277Z,4.30
2022-10-05T11:58:48.019Z,3.50
2022-10-05T12:01:29.972Z,3.60
2022-10-05T12:04:17.937Z,3.80
2022-10-05T12:07:10.420Z,3.70
2022-10-05T12:10:17.894Z,4.05
2022-10-05T12:13:09.610Z,3.63
2022-10-05T12:15:49.151Z,3.80
2022-10-05T12:18:42.383Z,3.78
2022-10-05T12:21:28.566Z,3.13
2022-10-05T12:24:01.086Z,3.25
2022-10-05T12:26:37.662Z,3.60
2022-10-05T12:29:16.865Z,3.63
2022-10-05T12:31:58.747Z,3.47
2022-10-05T12:34:44.756Z,3.50
2022-10-05T12:37:39.736Z,3.65
2022-10-05T12:40:25.574Z,3.47
2022-10-05T12:43:07.553Z,3.50
2022-10-05T12:45:53.893Z,4.13
2022-10-05T12:48:53.020Z,3.35
2022-10-05T12:51:34.797Z,3.38
2022-10-05T12:54:17.652Z,3.20
2022-10-05T12:56:55.665Z,3.33
2022-10-05T12:59:41.069Z,3.38
2022-10-05T13:02:28.580Z,3.60
2022-10-05T13:05:15.263Z,3.88
2022-10-05T13:08:07.802Z,3.22
2022-10-05T13:10:43.692Z,2.83
2022-10-05T13:13:35.249Z,3.03
2022-10-05T13:16:20.664Z,3.08
2022-10-05T13:19:32.017Z,3.20
2022-10-05T13:22:24.460Z,2.92
2022-10-05T13:25:09.633Z,3.05
2022-10-05T13:27:46.042Z,3.00
2022-10-05T13:30:17.903Z,3.30
2022-10-05T13:32:54.707Z,3.17
2022-10-05T13:35:41.158Z,3.05
2022-10-05T13:38:26.247Z,2.53
2022-10-05T13:41:11.480Z,2.90
2022-10-05T13:43:54.973Z,2.70
2022-10-05T13:46:38.392Z,2.63
2022-10-05T13:49:26.452Z,2.80
2022-10-05T13:52:08.401Z,2.38
2022-10-05T13:54:46.551Z,2.58
2022-10-05T13:57:32.970Z,2.70
2022-10-05T14:00:14.377Z,2.58
2022-10-05T14:02:47.188Z,2.55
2022-10-05T14:05:21.471Z,2.90
2022-10-05T14:07:54.901Z,2.40
2022-10-05T14:10:38.415Z,2.50
2022-10-05T14:13:26.365Z,2.63
2022-10-05T14:16:21.298Z,2.97
2022-10-05T14:18:57.489Z,2.72
2022-10-05T14:21:30.201Z,2.80
2022-10-05T14:24:42.504Z,3.20
2022-10-05T14:27:23.911Z,2.83
2022-10-05T14:30:00.633Z,2.97
2022-10-05T14:32:32.797Z,2.65
2022-10-05T14:35:15.765Z,2.97
2022-10-05T14:37:52.253Z,2.88
2022-10-05T14:40:30.956Z,2.60
2022-10-05T14:43:02.811Z,2.60
2022-10-05T14:45:31.065Z,2.80
2022-10-05T14:48:12.182Z,2.80
2022-10-05T14:50:59.252Z,2.47
2022-10-05T14:53:40.299Z,2.60
2022-10-05T14:56:46.391Z,2.30
2022-10-05T14:59:47.857Z,2.38
2022-10-05T15:02:50.015Z,1.92
2022-10-05T15:05:27.099Z,2.00
2022-10-05T15:08:08.624Z,2.13
2022-10-05T15:10:50.013Z,2.20
2022-10-05T15:13:23.153Z,2.15
2022-10-05T15:15:54.993Z,2.25
2022-10-05T15:18:37.224Z,2.42
2022-10-05T15:21:40.488Z,2.25
2022-10-05T15:24:19.168Z,2.10
2022-10-05T15:26:55.981Z,2.17
2022-10-05T15:29:52.396Z,2.25
2022-10-05T15:32:41.580Z,2.05
2022-10-05T15:35:36.665Z,2.30
2022-10-05T15:38:20.946Z,2.28
2022-10-05T15:41:01.145Z,2.20
2022-10-05T15:43:46.551Z,2.53
2022-10-05T15:46:21.939Z,2.45
2022-10-05T15:49:04.089Z,2.40
2022-10-05T15:51:50.742Z,2.38
2022-10-05T15:54:42.255Z,2.28
2022-10-05T15:57:22.574Z,2.38
2022-10-05T16:00:04.053Z,2.40
2022-10-05T16:02:42.589Z,2.55
2022-10-05T16:05:59.825Z,2.40
2022-10-05T16:09:01.373Z,2.83
2022-10-05T16:11:48.282Z,2.80
2022-10-05T16:14:35.413Z,2.95
2022-10-05T16:17:25.380Z,2.72
2022-10-05T16:20:14.559Z,2.78
2022-10-05T16:22:53.189Z,2.80
2022-10-05T16:25:26.161Z,2.70
2022-10-05T16:28:18.948Z,3.00
2022-10-05T16:31:00.679Z,3.50
2022-10-05T16:33:49.776Z,3.40
2022-10-05T16:36:40.043Z,3.58
2022-10-05T16:39:17.347Z,2.97
2022-10-05T16:41:57.467Z,3.40
2022-10-05T16:44:40.520Z,3.72
2022-10-05T16:47:38.992Z,3.75
2022-10-05T16:50:24.097Z,3.45
2022-10-05T16:52:59.810Z,6.53
2022-10-05T16:55:37.593Z,9.23
2022-10-05T16:58:23.696Z,10.27
2022-10-05T17:01:12.873Z,10.27
2022-10-05T17:04:03.754Z,8.77
2022-10-05T17:06:57.898Z,7.72
2022-10-05T17:09:42.797Z,6.20
2022-10-05T17:12:38.898Z,4.93
2022-10-05T17:15:31.789Z,4.25
2022-10-05T17:18:23.530Z,4.05
2022-10-05T17:21:13.674Z,4.00
2022-10-05T17:24:01.790Z,3.90
2022-10-05T17:26:58.428Z,4.38
2022-10-05T17:29:47.511Z,4.13
2022-10-05T17:32:39.508Z,3.97
2022-10-05T17:35:19.229Z,3.85
2022-10-05T17:38:14.289Z,4.20
2022-10-05T17:41:15.322Z,4.03
2022-10-05T17:44:24.815Z,4.22
2022-10-05T17:46:58.696Z,4.53
2022-10-05T17:50:16.884Z,4.55
2022-10-05T17:53:03.448Z,4.28
2022-10-05T17:56:04.051Z,4.60
2022-10-05T17:59:04.129Z,5.32
2022-10-05T18:01:37.756Z,5.40
2022-10-05T18:04:38.629Z,4.82
2022-10-05T18:07:25.337Z,4.90
2022-10-05T18:10:24.462Z,4.90
2022-10-05T18:13:34.574Z,5.18
2022-10-05T18:16:02.673Z,4.57
2022-10-05T18:18:58.955Z,4.72
2022-10-05T18:21:35.515Z,4.40
2022-10-05T18:25:03.461Z,4.00
2022-10-05T18:28:05.304Z,4.32
2022-10-05T18:30:55.017Z,4.40
2022-10-05T18:33:54.250Z,4.88
2022-10-05T18:36:51.450Z,4.55
2022-10-05T18:39:46.177Z,4.90
2022-10-05T18:42:27.168Z,4.60
2022-10-05T18:45:04.617Z,4.97
2022-10-05T18:47:45.338Z,4.63
2022-10-05T18:50:27.939Z,4.32
2022-10-05T18:53:23.372Z,4.15
2022-10-05T18:56:02.134Z,4.43
2022-10-05T18:58:42.594Z,4.55
2022-10-05T19:01:55.038Z,4.32
2022-10-05T19:04:38.658Z,4.05
2022-10-05T19:07:24.309Z,4.45
2022-10-05T19:10:08.643Z,4.20
2022-10-05T19:13:02.419Z,4.50
2022-10-05T19:15:42.260Z,4.68
2022-10-05T19:18:44.046Z,4.10
2022-10-05T19:21:31.975Z,3.92
2022-10-05T19:24:23.111Z,4.25
2022-10-05T19:27:06.695Z,3.75
2022-10-05T19:30:13.518Z,3.85
2022-10-05T19:32:59.656Z,4.03
2022-10-05T19:35:43.801Z,4.22
2022-10-05T19:38:28.120Z,4.13
2022-10-05T19:41:06.775Z,4.30
2022-10-05T19:43:54.241Z,4.13
2022-10-05T19:46:41.087Z,4.10
2022-10-05T19:49:11.437Z,4.18
2022-10-05T19:51:51.775Z,4.07
2022-10-05T19:54:25.913Z,3.90
2022-10-05T19:56:56.257Z,4.03
2022-10-05T19:59:31.324Z,4.30
2022-10-05T20:02:00.570Z,3.80
2022-10-05T20:04:37.258Z,4.47
2022-10-05T20:07:06.677Z,4.38
2022-10-05T20:09:52.056Z,4.50
2022-10-05T20:12:22.831Z,4.30
2022-10-05T20:15:26.194Z,4.20
2022-10-05T20:18:12.058Z,4.00
2022-10-05T20:20:45.752Z,4.60
2022-10-05T20:23:27.872Z,4.60
2022-10-05T20:26:13.634Z,4.95
2022-10-05T20:28:41.857Z,4.63
2022-10-05T20:31:09.890Z,5.50
2022-10-05T20:33:38.926Z,4.57
2022-10-05T20:36:08.562Z,4.70
2022-10-05T20:38:41.079Z,4.45
2022-10-05T20:41:09.623Z,4.80
2022-10-05T20:43:39.225Z,4.95
2022-10-05T20:46:07.521Z,4.80
2022-10-05T20:48:36.547Z,4.72
2022-10-05T20:51:04.661Z,5.10
2022-10-05T20:53:33.561Z,5.13
2022-10-05T20:56:04.625Z,4.70
2022-10-05T20:58:32.642Z,4.72
2022-10-05T21:01:19.591Z,5.07
2022-10-05T21:03:48.153Z,5.10
2022-10-05T21:06:17.891Z,4.88
2022-10-05T21:08:46.304Z,4.43
2022-10-05T21:11:15.900Z,4.78
2022-10-05T21:13:45.745Z,4.57
2022-10-05T21:16:15.515Z,4.43
2022-10-05T21:18:46.871Z,4.00
2022-10-05T21:21:17.028Z,3.83
2022-10-05T21:23:45.492Z,4.05
2022-10-05T21:26:16.115Z,3.85
2022-10-05T21:28:44.113Z,3.60
2022-10-05T21:31:12.143Z,3.85
2022-10-05T21:33:40.150Z,4.45
2022-10-05T21:36:08.152Z,3.75
2022-10-05T21:38:36.147Z,4.30
2022-10-05T21:41:04.651Z,4.15
2022-10-05T21:43:34.039Z,3.88
2022-10-05T21:46:02.708Z,4.18
2022-10-05T21:48:34.773Z,4.65
2022-10-05T21:51:03.386Z,4.55
2022-10-05T21:53:36.355Z,4.00
2022-10-05T21:56:10.919Z,4.25
2022-10-05T21:58:44.664Z,4.05
2022-10-05T22:01:12.798Z,4.70
2022-10-05T22:03:40.934Z,4.03
2022-10-05T22:06:09.236Z,4.40
2022-10-05T22:08:37.481Z,4.15
2022-10-05T22:11:12.371Z,4.22
2022-10-05T22:13:48.135Z,4.38
2022-10-05T22:16:19.645Z,4.22
2022-10-05T22:18:48.128Z,4.35
2022-10-05T22:21:16.762Z,4.32
2022-10-05T22:23:46.963Z,4.53
2022-10-05T22:26:20.143Z,4.90
2022-10-05T22:28:52.327Z,4.15
2022-10-05T22:31:20.389Z,4.20
2022-10-05T22:33:48.555Z,4.60
2022-10-05T22:36:17.287Z,4.38
2022-10-05T22:38:46.571Z,4.60
2022-10-05T22:41:16.450Z,4.53
2022-10-05T22:43:44.483Z,4.30
2022-10-05T22:46:14.907Z,4.30
2022-10-05T22:48:43.128Z,4.45
2022-10-05T22:51:11.284Z,4.03
2022-10-05T22:53:39.600Z,4.38
2022-10-05T22:56:10.304Z,4.60
2022-10-05T22:58:39.276Z,4.82
2022-10-05T23:01:10.232Z,4.88
2022-10-05T23:03:39.913Z,4.82
2022-10-05T23:06:11.623Z,4.55
2022-10-05T23:08:41.625Z,4.30
2022-10-05T23:11:13.312Z,4.10
2022-10-05T23:13:42.073Z,4.40
2022-10-05T23:16:12.802Z,4.28
2022-10-05T23:18:43.313Z,4.43
2022-10-05T23:21:12.610Z,4.30
2022-10-05T23:23:43.340Z,4.57
2022-10-05T23:26:12.773Z,3.97
2022-10-05T23:28:42.958Z,4.30
2022-10-05T23:31:11.088Z,4.32
2022-10-05T23:33:39.103Z,4.10
2022-10-05T23:36:11.301Z,4.10
2022-10-05T23:38:39.506Z,4.15
2022-10-05T23:41:08.939Z,4.75
2022-10-05T23:43:37.822Z,4.22
2022-10-05T23:46:08.388Z,4.32
2022-10-05T23:48:38.087Z,4.40
2022-10-05T23:51:11.036Z,4.10
2022-10-05T23:53:39.435Z,4.68
2022-10-05T23:56:08.410Z,4.50
2022-10-05T23:58:36.360Z,4.18
